sensor_id;sensor_type;location;lat;lon;timestamp;pressure;altitude;pressure_sealevel;temperature;humidity
48862;BME280;34681;49.188;-0.374;2023-03-13T00:01:50;100204.75;;;14.87;76.83
48862;BME280;34681;49.188;-0.374;2023-03-13T00:04:15;100213.38;;;14.84;77.25
48862;BME280;34681;49.188;-0.374;2023-03-13T00:06:41;100223.56;;;14.83;77.24
48862;BME280;34681;49.188;-0.374;2023-03-13T00:09:09;100234.00;;;14.88;77.14
48862;BME280;34681;49.188;-0.374;2023-03-13T00:11:35;100232.50;;;15.00;76.60
48862;BME280;34681;49.188;-0.374;2023-03-13T00:14:02;100229.38;;;15.03;76.43
48862;BME280;34681;49.188;-0.374;2023-03-13T00:16:28;100229.47;;;15.10;76.14
48862;BME280;34681;49.188;-0.374;2023-03-13T00:18:55;100225.47;;;15.12;75.95
48862;BME280;34681;49.188;-0.374;2023-03-13T00:21:23;100221.91;;;14.89;76.61
48862;BME280;34681;49.188;-0.374;2023-03-13T00:23:49;100216.06;;;14.92;76.88
48862;BME280;34681;49.188;-0.374;2023-03-13T00:26:20;100220.06;;;14.89;76.96
48862;BME280;34681;49.188;-0.374;2023-03-13T00:28:46;100184.41;;;14.88;76.76
48862;BME280;34681;49.188;-0.374;2023-03-13T00:31:13;100181.31;;;14.91;76.18
48862;BME280;34681;49.188;-0.374;2023-03-13T00:33:45;100172.34;;;14.89;76.34
48862;BME280;34681;49.188;-0.374;2023-03-13T00:36:13;100176.75;;;14.98;75.75
48862;BME280;34681;49.188;-0.374;2023-03-13T00:38:39;100167.88;;;14.88;75.69
48862;BME280;34681;49.188;-0.374;2023-03-13T00:41:10;100171.13;;;14.92;75.26
48862;BME280;34681;49.188;-0.374;2023-03-13T00:43:40;100153.28;;;15.02;75.10
48862;BME280;34681;49.188;-0.374;2023-03-13T00:46:06;100147.56;;;15.04;75.01
48862;BME280;34681;49.188;-0.374;2023-03-13T00:48:32;100147.47;;;14.82;75.17
48862;BME280;34681;49.188;-0.374;2023-03-13T00:50:58;100163.44;;;14.87;75.06
48862;BME280;34681;49.188;-0.374;2023-03-13T00:53:24;100173.81;;;15.00;74.45
48862;BME280;34681;49.188;-0.374;2023-03-13T00:55:59;100174.38;;;15.10;74.21
48862;BME280;34681;49.188;-0.374;2023-03-13T00:58:27;100156.03;;;15.02;73.98
48862;BME280;34681;49.188;-0.374;2023-03-13T01:00:53;100157.47;;;14.98;73.91
48862;BME280;34681;49.188;-0.374;2023-03-13T01:03:19;100159.63;;;15.03;74.04
48862;BME280;34681;49.188;-0.374;2023-03-13T01:05:45;100149.56;;;15.10;73.52
48862;BME280;34681;49.188;-0.374;2023-03-13T01:08:10;100138.44;;;15.03;73.67
48862;BME280;34681;49.188;-0.374;2023-03-13T01:10:36;100155.19;;;15.16;72.90
48862;BME280;34681;49.188;-0.374;2023-03-13T01:13:01;100154.31;;;15.16;73.01
48862;BME280;34681;49.188;-0.374;2023-03-13T01:15:29;100135.59;;;14.97;72.90
48862;BME280;34681;49.188;-0.374;2023-03-13T01:17:55;100143.00;;;14.96;73.11
48862;BME280;34681;49.188;-0.374;2023-03-13T01:20:20;100112.53;;;14.98;72.43
48862;BME280;34681;49.188;-0.374;2023-03-13T01:22:46;100132.75;;;15.05;72.60
48862;BME280;34681;49.188;-0.374;2023-03-13T01:25:11;100129.81;;;15.06;72.01
48862;BME280;34681;49.188;-0.374;2023-03-13T01:27:36;100103.03;;;15.00;72.16
48862;BME280;34681;49.188;-0.374;2023-03-13T01:30:02;100081.25;;;15.05;71.88
48862;BME280;34681;49.188;-0.374;2023-03-13T01:32:27;100066.19;;;15.01;71.72
48862;BME280;34681;49.188;-0.374;2023-03-13T01:34:53;100063.72;;;14.92;71.95
48862;BME280;34681;49.188;-0.374;2023-03-13T01:37:18;100054.13;;;14.87;72.06
48862;BME280;34681;49.188;-0.374;2023-03-13T01:39:43;100096.75;;;14.77;72.36
48862;BME280;34681;49.188;-0.374;2023-03-13T01:42:09;100115.28;;;14.83;72.05
48862;BME280;34681;49.188;-0.374;2023-03-13T01:44:54;100127.34;;;14.82;72.37
48862;BME280;34681;49.188;-0.374;2023-03-13T01:47:20;100116.81;;;14.85;72.38
48862;BME280;34681;49.188;-0.374;2023-03-13T01:49:47;100110.75;;;14.90;72.20
48862;BME280;34681;49.188;-0.374;2023-03-13T01:52:20;100107.28;;;15.03;71.92
48862;BME280;34681;49.188;-0.374;2023-03-13T01:54:51;100083.16;;;15.05;71.78
48862;BME280;34681;49.188;-0.374;2023-03-13T01:57:28;100093.81;;;15.08;71.86
48862;BME280;34681;49.188;-0.374;2023-03-13T02:00:05;100085.66;;;15.00;72.24
48862;BME280;34681;49.188;-0.374;2023-03-13T02:02:33;100093.72;;;15.01;71.90
48862;BME280;34681;49.188;-0.374;2023-03-13T02:05:02;100099.31;;;15.08;71.66
48862;BME280;34681;49.188;-0.374;2023-03-13T02:08:12;100091.81;;;15.16;71.19
48862;BME280;34681;49.188;-0.374;2023-03-13T02:10:49;100076.59;;;15.06;71.27
48862;BME280;34681;49.188;-0.374;2023-03-13T02:13:16;100088.00;;;15.03;71.04
48862;BME280;34681;49.188;-0.374;2023-03-13T02:15:42;100083.56;;;15.02;71.10
48862;BME280;34681;49.188;-0.374;2023-03-13T02:18:09;100083.34;;;15.03;71.23
48862;BME280;34681;49.188;-0.374;2023-03-13T02:20:37;100079.75;;;15.03;70.83
48862;BME280;34681;49.188;-0.374;2023-03-13T02:23:21;100092.09;;;15.07;70.59
48862;BME280;34681;49.188;-0.374;2023-03-13T02:25:50;100084.31;;;15.10;70.47
48862;BME280;34681;49.188;-0.374;2023-03-13T02:28:19;100084.00;;;15.20;70.31
48862;BME280;34681;49.188;-0.374;2023-03-13T02:30:47;100080.69;;;15.25;69.75
48862;BME280;34681;49.188;-0.374;2023-03-13T02:33:14;100078.97;;;15.24;69.91
48862;BME280;34681;49.188;-0.374;2023-03-13T02:35:42;100068.22;;;15.14;70.20
48862;BME280;34681;49.188;-0.374;2023-03-13T02:38:11;100062.47;;;15.09;70.55
48862;BME280;34681;49.188;-0.374;2023-03-13T02:40:41;100063.41;;;15.16;70.19
48862;BME280;34681;49.188;-0.374;2023-03-13T02:43:12;100046.19;;;15.14;70.34
48862;BME280;34681;49.188;-0.374;2023-03-13T02:45:39;100039.47;;;15.02;70.35
48862;BME280;34681;49.188;-0.374;2023-03-13T02:48:05;100033.13;;;15.01;70.37
48862;BME280;34681;49.188;-0.374;2023-03-13T02:50:31;100023.88;;;15.09;70.19
48862;BME280;34681;49.188;-0.374;2023-03-13T02:53:02;100015.22;;;15.12;70.26
48862;BME280;34681;49.188;-0.374;2023-03-13T02:55:37;100004.13;;;15.05;70.13
48862;BME280;34681;49.188;-0.374;2023-03-13T02:58:03;100028.84;;;14.99;70.02
48862;BME280;34681;49.188;-0.374;2023-03-13T03:00:29;100014.28;;;15.05;70.24
48862;BME280;34681;49.188;-0.374;2023-03-13T03:02:54;100015.13;;;15.05;70.13
48862;BME280;34681;49.188;-0.374;2023-03-13T03:05:20;100008.97;;;15.03;70.42
48862;BME280;34681;49.188;-0.374;2023-03-13T03:07:46;99999.84;;;15.03;70.46
48862;BME280;34681;49.188;-0.374;2023-03-13T03:10:12;100003.88;;;15.22;70.14
48862;BME280;34681;49.188;-0.374;2023-03-13T03:12:37;100008.28;;;15.16;70.13
48862;BME280;34681;49.188;-0.374;2023-03-13T03:15:03;99994.41;;;15.24;70.00
48862;BME280;34681;49.188;-0.374;2023-03-13T03:17:29;99998.22;;;15.23;70.06
48862;BME280;34681;49.188;-0.374;2023-03-13T03:19:54;99994.63;;;15.08;70.79
48862;BME280;34681;49.188;-0.374;2023-03-13T03:22:20;99987.78;;;15.04;70.77
48862;BME280;34681;49.188;-0.374;2023-03-13T03:24:45;99970.91;;;15.07;70.89
48862;BME280;34681;49.188;-0.374;2023-03-13T03:27:10;99982.16;;;15.12;70.86
48862;BME280;34681;49.188;-0.374;2023-03-13T03:29:36;99974.19;;;15.17;70.86
48862;BME280;34681;49.188;-0.374;2023-03-13T03:32:01;99973.44;;;15.08;71.48
48862;BME280;34681;49.188;-0.374;2023-03-13T03:34:26;99977.34;;;15.35;70.53
48862;BME280;34681;49.188;-0.374;2023-03-13T03:36:52;99966.03;;;15.30;70.95
48862;BME280;34681;49.188;-0.374;2023-03-13T03:39:17;99964.94;;;15.25;71.66
48862;BME280;34681;49.188;-0.374;2023-03-13T03:41:42;99972.72;;;15.21;72.09
48862;BME280;34681;49.188;-0.374;2023-03-13T03:44:08;99962.91;;;15.33;71.99
48862;BME280;34681;49.188;-0.374;2023-03-13T03:46:33;99969.59;;;15.24;72.97
48862;BME280;34681;49.188;-0.374;2023-03-13T03:48:58;99970.69;;;15.30;73.10
48862;BME280;34681;49.188;-0.374;2023-03-13T03:51:24;99968.91;;;15.22;73.54
48862;BME280;34681;49.188;-0.374;2023-03-13T03:53:49;99956.19;;;15.21;73.90
48862;BME280;34681;49.188;-0.374;2023-03-13T03:56:15;99953.75;;;15.11;74.49
48862;BME280;34681;49.188;-0.374;2023-03-13T03:58:40;99957.50;;;15.04;74.93
48862;BME280;34681;49.188;-0.374;2023-03-13T04:01:05;99945.25;;;15.06;75.29
48862;BME280;34681;49.188;-0.374;2023-03-13T04:03:31;99964.78;;;15.11;75.25
48862;BME280;34681;49.188;-0.374;2023-03-13T04:05:56;99944.50;;;14.98;76.21
48862;BME280;34681;49.188;-0.374;2023-03-13T04:08:22;99937.22;;;15.11;75.98
48862;BME280;34681;49.188;-0.374;2023-03-13T04:10:48;99952.25;;;15.09;75.99
48862;BME280;34681;49.188;-0.374;2023-03-13T04:13:13;99949.50;;;15.09;76.34
48862;BME280;34681;49.188;-0.374;2023-03-13T04:15:39;99956.78;;;15.16;75.97
48862;BME280;34681;49.188;-0.374;2023-03-13T04:18:05;99954.84;;;15.32;75.28
48862;BME280;34681;49.188;-0.374;2023-03-13T04:20:30;99951.72;;;15.20;75.69
48862;BME280;34681;49.188;-0.374;2023-03-13T04:22:55;99956.63;;;15.03;76.45
48862;BME280;34681;49.188;-0.374;2023-03-13T04:25:21;99943.59;;;14.91;77.05
48862;BME280;34681;49.188;-0.374;2023-03-13T04:27:46;99954.28;;;15.00;77.21
48862;BME280;34681;49.188;-0.374;2023-03-13T04:30:11;99951.72;;;14.99;77.02
48862;BME280;34681;49.188;-0.374;2023-03-13T04:32:37;99962.16;;;15.03;77.15
48862;BME280;34681;49.188;-0.374;2023-03-13T04:35:02;99953.44;;;15.00;77.54
48862;BME280;34681;49.188;-0.374;2023-03-13T04:37:28;99940.63;;;14.92;78.35
48862;BME280;34681;49.188;-0.374;2023-03-13T04:39:53;99945.50;;;14.90;78.20
48862;BME280;34681;49.188;-0.374;2023-03-13T04:42:19;99939.28;;;14.88;78.40
48862;BME280;34681;49.188;-0.374;2023-03-13T04:44:44;99935.56;;;14.96;78.17
48862;BME280;34681;49.188;-0.374;2023-03-13T04:47:09;99934.47;;;14.90;78.43
48862;BME280;34681;49.188;-0.374;2023-03-13T04:49:35;99938.84;;;14.84;78.43
48862;BME280;34681;49.188;-0.374;2023-03-13T04:52:00;99945.00;;;14.86;78.34
48862;BME280;34681;49.188;-0.374;2023-03-13T04:54:26;99934.28;;;14.92;78.13
48862;BME280;34681;49.188;-0.374;2023-03-13T04:56:51;99939.91;;;15.05;77.73
48862;BME280;34681;49.188;-0.374;2023-03-13T04:59:16;99937.88;;;15.13;77.20
48862;BME280;34681;49.188;-0.374;2023-03-13T05:01:42;99940.09;;;15.03;77.68
48862;BME280;34681;49.188;-0.374;2023-03-13T05:04:08;99931.06;;;15.09;77.86
48862;BME280;34681;49.188;-0.374;2023-03-13T05:06:34;99935.31;;;15.12;77.95
48862;BME280;34681;49.188;-0.374;2023-03-13T05:09:00;99937.34;;;15.03;78.51
48862;BME280;34681;49.188;-0.374;2023-03-13T05:11:26;99931.13;;;14.95;78.58
48862;BME280;34681;49.188;-0.374;2023-03-13T05:13:52;99922.41;;;14.91;79.11
48862;BME280;34681;49.188;-0.374;2023-03-13T05:16:17;99923.06;;;14.93;78.99
48862;BME280;34681;49.188;-0.374;2023-03-13T05:18:42;99919.53;;;14.99;78.84
48862;BME280;34681;49.188;-0.374;2023-03-13T05:21:08;99925.25;;;14.98;79.01
48862;BME280;34681;49.188;-0.374;2023-03-13T05:23:33;99919.56;;;14.84;79.39
48862;BME280;34681;49.188;-0.374;2023-03-13T05:25:59;99924.25;;;14.69;80.05
48862;BME280;34681;49.188;-0.374;2023-03-13T05:28:24;99912.31;;;14.62;80.41
48862;BME280;34681;49.188;-0.374;2023-03-13T05:30:50;99919.88;;;14.75;80.24
48862;BME280;34681;49.188;-0.374;2023-03-13T05:33:16;99908.78;;;14.68;80.38
48862;BME280;34681;49.188;-0.374;2023-03-13T05:35:44;99908.66;;;14.76;79.84
48862;BME280;34681;49.188;-0.374;2023-03-13T05:38:09;99896.81;;;14.76;79.80
48862;BME280;34681;49.188;-0.374;2023-03-13T05:40:34;99895.47;;;14.72;79.81
48862;BME280;34681;49.188;-0.374;2023-03-13T05:43:00;99895.13;;;14.60;80.17
48862;BME280;34681;49.188;-0.374;2023-03-13T05:45:25;99903.03;;;14.84;79.62
48862;BME280;34681;49.188;-0.374;2023-03-13T05:47:50;99892.88;;;14.85;79.30
48862;BME280;34681;49.188;-0.374;2023-03-13T05:50:16;99902.44;;;14.89;79.32
48862;BME280;34681;49.188;-0.374;2023-03-13T05:52:41;99878.72;;;14.88;78.92
48862;BME280;34681;49.188;-0.374;2023-03-13T05:55:07;99867.56;;;14.75;79.14
48862;BME280;34681;49.188;-0.374;2023-03-13T05:57:33;99875.66;;;14.61;79.26
48862;BME280;34681;49.188;-0.374;2023-03-13T05:59:58;99874.91;;;14.68;79.13
48862;BME280;34681;49.188;-0.374;2023-03-13T06:02:24;99874.47;;;14.49;79.30
48862;BME280;34681;49.188;-0.374;2023-03-13T06:04:49;99877.88;;;14.51;79.58
48862;BME280;34681;49.188;-0.374;2023-03-13T06:07:14;99881.56;;;14.58;78.63
48862;BME280;34681;49.188;-0.374;2023-03-13T06:09:40;99879.13;;;14.49;78.31
48862;BME280;34681;49.188;-0.374;2023-03-13T06:12:11;99874.84;;;14.46;77.59
48862;BME280;34681;49.188;-0.374;2023-03-13T06:14:37;99875.00;;;14.45;76.92
48862;BME280;34681;49.188;-0.374;2023-03-13T06:17:04;99862.00;;;14.39;76.51
48862;BME280;34681;49.188;-0.374;2023-03-13T06:19:30;99860.69;;;14.34;76.41
48862;BME280;34681;49.188;-0.374;2023-03-13T06:21:55;99852.84;;;14.31;76.55
48862;BME280;34681;49.188;-0.374;2023-03-13T06:24:20;99867.72;;;14.37;75.61
48862;BME280;34681;49.188;-0.374;2023-03-13T06:26:47;99857.00;;;14.42;75.78
48862;BME280;34681;49.188;-0.374;2023-03-13T06:29:13;99860.78;;;14.41;75.35
48862;BME280;34681;49.188;-0.374;2023-03-13T06:31:38;99861.25;;;14.45;75.14
48862;BME280;34681;49.188;-0.374;2023-03-13T06:34:03;99852.72;;;14.54;74.70
48862;BME280;34681;49.188;-0.374;2023-03-13T06:36:29;99844.81;;;14.66;73.97
48862;BME280;34681;49.188;-0.374;2023-03-13T06:38:54;99841.97;;;14.59;73.74
48862;BME280;34681;49.188;-0.374;2023-03-13T06:41:19;99839.44;;;14.58;73.80
48862;BME280;34681;49.188;-0.374;2023-03-13T06:43:45;99838.81;;;14.63;73.49
48862;BME280;34681;49.188;-0.374;2023-03-13T06:46:16;99824.81;;;14.79;72.65
48862;BME280;34681;49.188;-0.374;2023-03-13T06:48:58;99827.72;;;14.92;71.98
48862;BME280;34681;49.188;-0.374;2023-03-13T06:51:34;99816.03;;;14.69;72.28
48862;BME280;34681;49.188;-0.374;2023-03-13T06:54:01;99818.78;;;14.69;72.32
48862;BME280;34681;49.188;-0.374;2023-03-13T06:56:26;99811.66;;;14.74;71.67
48862;BME280;34681;49.188;-0.374;2023-03-13T06:58:51;99797.22;;;14.94;70.93
48862;BME280;34681;49.188;-0.374;2023-03-13T07:01:17;99813.41;;;15.03;70.72
48862;BME280;34681;49.188;-0.374;2023-03-13T07:03:42;99802.44;;;15.10;70.46
48862;BME280;34681;49.188;-0.374;2023-03-13T07:06:10;99808.41;;;15.13;70.10
48862;BME280;34681;49.188;-0.374;2023-03-13T07:08:36;99787.03;;;15.15;69.94
48862;BME280;34681;49.188;-0.374;2023-03-13T07:11:04;99787.72;;;15.24;69.82
48862;BME280;34681;49.188;-0.374;2023-03-13T07:13:30;99785.16;;;15.51;68.76
48862;BME280;34681;49.188;-0.374;2023-03-13T07:16:04;99803.13;;;15.68;68.13
48862;BME280;34681;49.188;-0.374;2023-03-13T07:18:30;99792.69;;;15.98;67.00
48862;BME280;34681;49.188;-0.374;2023-03-13T07:20:57;99793.69;;;16.38;65.69
48862;BME280;34681;49.188;-0.374;2023-03-13T07:23:25;99790.72;;;16.46;65.44
48862;BME280;34681;49.188;-0.374;2023-03-13T07:25:55;99786.69;;;16.42;65.43
48862;BME280;34681;49.188;-0.374;2023-03-13T07:28:21;99776.53;;;16.63;64.68
48862;BME280;34681;49.188;-0.374;2023-03-13T07:30:47;99778.13;;;17.31;62.57
48862;BME280;34681;49.188;-0.374;2023-03-13T07:33:14;99777.72;;;20.25;54.59
48862;BME280;34681;49.188;-0.374;2023-03-13T07:35:40;99780.22;;;21.70;50.82
48862;BME280;34681;49.188;-0.374;2023-03-13T07:38:05;99788.91;;;22.89;48.22
48862;BME280;34681;49.188;-0.374;2023-03-13T07:40:30;99791.59;;;23.63;46.26
48862;BME280;34681;49.188;-0.374;2023-03-13T07:42:56;99790.16;;;24.60;43.64
48862;BME280;34681;49.188;-0.374;2023-03-13T07:45:21;99776.75;;;25.11;42.14
48862;BME280;34681;49.188;-0.374;2023-03-13T07:47:46;99779.94;;;24.71;42.80
48862;BME280;34681;49.188;-0.374;2023-03-13T07:50:12;99785.88;;;23.58;44.98
48862;BME280;34681;49.188;-0.374;2023-03-13T07:52:37;99787.16;;;22.43;46.77
48862;BME280;34681;49.188;-0.374;2023-03-13T07:55:03;99788.31;;;21.72;48.23
48862;BME280;34681;49.188;-0.374;2023-03-13T07:57:28;99780.28;;;20.45;51.06
48862;BME280;34681;49.188;-0.374;2023-03-13T07:59:54;99779.75;;;19.81;52.60
48862;BME280;34681;49.188;-0.374;2023-03-13T08:02:19;99777.84;;;19.07;54.43
48862;BME280;34681;49.188;-0.374;2023-03-13T08:04:45;99787.81;;;18.45;56.17
48862;BME280;34681;49.188;-0.374;2023-03-13T08:07:11;99785.09;;;18.38;56.53
48862;BME280;34681;49.188;-0.374;2023-03-13T08:09:36;99779.84;;;18.17;57.47
48862;BME280;34681;49.188;-0.374;2023-03-13T08:12:01;99782.63;;;18.10;57.76
48862;BME280;34681;49.188;-0.374;2023-03-13T08:14:27;99781.56;;;18.18;57.50
48862;BME280;34681;49.188;-0.374;2023-03-13T08:16:52;99782.38;;;18.25;57.47
48862;BME280;34681;49.188;-0.374;2023-03-13T08:19:18;99776.34;;;18.41;57.34
48862;BME280;34681;49.188;-0.374;2023-03-13T08:21:43;99776.03;;;18.56;56.65
48862;BME280;34681;49.188;-0.374;2023-03-13T08:24:10;99774.53;;;18.15;57.21
48862;BME280;34681;49.188;-0.374;2023-03-13T08:26:39;99779.16;;;17.63;58.32
48862;BME280;34681;49.188;-0.374;2023-03-13T08:29:08;99771.25;;;17.60;58.40
48862;BME280;34681;49.188;-0.374;2023-03-13T08:31:45;99765.56;;;17.49;58.77
48862;BME280;34681;49.188;-0.374;2023-03-13T08:34:12;99752.81;;;17.48;58.38
48862;BME280;34681;49.188;-0.374;2023-03-13T08:36:39;99741.31;;;17.44;58.44
48862;BME280;34681;49.188;-0.374;2023-03-13T08:39:15;99750.44;;;17.71;57.54
48862;BME280;34681;49.188;-0.374;2023-03-13T08:41:40;99744.66;;;17.79;57.48
48862;BME280;34681;49.188;-0.374;2023-03-13T08:44:08;99769.16;;;17.56;57.27
48862;BME280;34681;49.188;-0.374;2023-03-13T08:46:35;99743.44;;;17.49;57.81
48862;BME280;34681;49.188;-0.374;2023-03-13T08:49:01;99729.78;;;17.60;57.40
48862;BME280;34681;49.188;-0.374;2023-03-13T08:51:27;99748.28;;;17.60;57.27
48862;BME280;34681;49.188;-0.374;2023-03-13T08:53:54;99741.97;;;17.46;57.03
48862;BME280;34681;49.188;-0.374;2023-03-13T08:56:25;99744.06;;;17.57;56.85
48862;BME280;34681;49.188;-0.374;2023-03-13T08:58:55;99744.22;;;17.69;56.56
48862;BME280;34681;49.188;-0.374;2023-03-13T09:01:23;99765.09;;;17.58;56.41
48862;BME280;34681;49.188;-0.374;2023-03-13T09:03:50;99746.81;;;17.57;55.94
48862;BME280;34681;49.188;-0.374;2023-03-13T09:06:15;99746.66;;;17.26;55.57
48862;BME280;34681;49.188;-0.374;2023-03-13T09:08:41;99734.13;;;17.23;55.76
48862;BME280;34681;49.188;-0.374;2023-03-13T09:11:09;99736.66;;;17.38;56.00
48862;BME280;34681;49.188;-0.374;2023-03-13T09:13:37;99738.13;;;17.47;55.74
48862;BME280;34681;49.188;-0.374;2023-03-13T09:16:05;99732.59;;;17.34;56.28
48862;BME280;34681;49.188;-0.374;2023-03-13T09:18:32;99729.41;;;17.44;56.17
48862;BME280;34681;49.188;-0.374;2023-03-13T09:20:57;99743.00;;;17.72;55.62
48862;BME280;34681;49.188;-0.374;2023-03-13T09:23:23;99730.78;;;17.92;55.52
48862;BME280;34681;49.188;-0.374;2023-03-13T09:25:52;99717.75;;;18.00;55.27
48862;BME280;34681;49.188;-0.374;2023-03-13T09:28:17;99703.78;;;18.26;54.45
48862;BME280;34681;49.188;-0.374;2023-03-13T09:30:44;99714.59;;;18.34;53.60
48862;BME280;34681;49.188;-0.374;2023-03-13T09:33:09;99711.75;;;18.47;53.54
48862;BME280;34681;49.188;-0.374;2023-03-13T09:35:37;99721.72;;;18.17;53.42
48862;BME280;34681;49.188;-0.374;2023-03-13T09:38:03;99717.25;;;18.16;53.74
48862;BME280;34681;49.188;-0.374;2023-03-13T09:40:28;99710.59;;;18.30;53.78
48862;BME280;34681;49.188;-0.374;2023-03-13T09:42:57;99712.09;;;18.26;54.36
48862;BME280;34681;49.188;-0.374;2023-03-13T09:45:32;99704.22;;;18.30;54.33
48862;BME280;34681;49.188;-0.374;2023-03-13T09:48:17;99690.56;;;18.66;54.24
48862;BME280;34681;49.188;-0.374;2023-03-13T09:53:31;99684.59;;;18.63;53.49
48862;BME280;34681;49.188;-0.374;2023-03-13T09:55:57;99684.03;;;18.54;53.14
48862;BME280;34681;49.188;-0.374;2023-03-13T09:58:26;99694.59;;;18.64;53.62
48862;BME280;34681;49.188;-0.374;2023-03-13T10:01:03;99681.19;;;18.61;52.47
48862;BME280;34681;49.188;-0.374;2023-03-13T10:03:38;99677.91;;;18.45;51.48
48862;BME280;34681;49.188;-0.374;2023-03-13T10:06:11;99670.88;;;18.43;51.83
48862;BME280;34681;49.188;-0.374;2023-03-13T10:08:39;99662.38;;;18.06;52.30
48862;BME280;34681;49.188;-0.374;2023-03-13T10:11:26;99653.25;;;18.37;51.49
48862;BME280;34681;49.188;-0.374;2023-03-13T10:17:19;99657.25;;;18.10;52.09
48862;BME280;34681;49.188;-0.374;2023-03-13T10:19:40;99659.03;;;17.98;51.93
48862;BME280;34681;49.188;-0.374;2023-03-13T10:22:29;99667.31;;;18.04;52.25
48862;BME280;34681;49.188;-0.374;2023-03-13T10:25:20;99658.59;;;18.32;52.25
48862;BME280;34681;49.188;-0.374;2023-03-13T10:27:49;99654.09;;;18.06;51.75
48862;BME280;34681;49.188;-0.374;2023-03-13T10:30:29;99662.53;;;18.11;50.99
48862;BME280;34681;49.188;-0.374;2023-03-13T10:33:00;99641.97;;;18.01;51.81
48862;BME280;34681;49.188;-0.374;2023-03-13T10:35:42;99654.91;;;18.13;52.46
48862;BME280;34681;49.188;-0.374;2023-03-13T10:38:10;99642.72;;;17.83;52.08
48862;BME280;34681;49.188;-0.374;2023-03-13T10:40:37;99660.81;;;18.17;52.44
48862;BME280;34681;49.188;-0.374;2023-03-13T10:43:06;99651.88;;;18.21;52.44
48862;BME280;34681;49.188;-0.374;2023-03-13T10:45:34;99640.38;;;18.18;52.88
48862;BME280;34681;49.188;-0.374;2023-03-13T10:50:41;99645.31;;;18.09;52.01
48862;BME280;34681;49.188;-0.374;2023-03-13T10:53:31;99640.00;;;18.08;52.53
48862;BME280;34681;49.188;-0.374;2023-03-13T10:56:02;99644.72;;;18.39;52.14
48862;BME280;34681;49.188;-0.374;2023-03-13T10:58:54;99649.69;;;18.87;51.49
48862;BME280;34681;49.188;-0.374;2023-03-13T11:03:52;99626.16;;;19.14;50.79
48862;BME280;34681;49.188;-0.374;2023-03-13T11:06:49;99628.56;;;18.86;49.25
48862;BME280;34681;49.188;-0.374;2023-03-13T11:09:16;99646.13;;;18.79;48.79
48862;BME280;34681;49.188;-0.374;2023-03-13T11:12:00;99645.16;;;18.92;49.55
48862;BME280;34681;49.188;-0.374;2023-03-13T11:14:26;99649.00;;;18.91;48.45
48862;BME280;34681;49.188;-0.374;2023-03-13T11:17:02;99647.97;;;18.86;49.23
48862;BME280;34681;49.188;-0.374;2023-03-13T11:19:56;99647.53;;;18.89;49.00
48862;BME280;34681;49.188;-0.374;2023-03-13T11:27:43;99631.72;;;18.39;50.46
48862;BME280;34681;49.188;-0.374;2023-03-13T11:36:01;99615.91;;;18.46;49.54
48862;BME280;34681;49.188;-0.374;2023-03-13T11:38:33;99607.47;;;18.35;50.38
48862;BME280;34681;49.188;-0.374;2023-03-13T11:44:06;99592.19;;;18.25;51.08
48862;BME280;34681;49.188;-0.374;2023-03-13T11:47:04;99595.72;;;18.39;50.49
48862;BME280;34681;49.188;-0.374;2023-03-13T11:49:59;99584.97;;;18.49;50.08
48862;BME280;34681;49.188;-0.374;2023-03-13T11:55:31;99585.59;;;18.51;48.24
48862;BME280;34681;49.188;-0.374;2023-03-13T11:58:22;99573.72;;;18.44;48.63
48862;BME280;34681;49.188;-0.374;2023-03-13T12:01:02;99560.44;;;18.53;48.54
48862;BME280;34681;49.188;-0.374;2023-03-13T12:03:36;99566.44;;;18.50;48.17
48862;BME280;34681;49.188;-0.374;2023-03-13T12:06:06;99568.59;;;18.48;48.26
48862;BME280;34681;49.188;-0.374;2023-03-13T12:08:45;99554.63;;;18.36;48.26
48862;BME280;34681;49.188;-0.374;2023-03-13T12:11:32;99528.94;;;18.29;49.13
48862;BME280;34681;49.188;-0.374;2023-03-13T12:14:04;99547.09;;;18.18;49.00
48862;BME280;34681;49.188;-0.374;2023-03-13T12:16:40;99532.31;;;18.31;49.74
48862;BME280;34681;49.188;-0.374;2023-03-13T12:19:14;99509.31;;;18.31;49.98
48862;BME280;34681;49.188;-0.374;2023-03-13T12:21:49;99502.75;;;18.25;48.51
48862;BME280;34681;49.188;-0.374;2023-03-13T12:24:37;99501.81;;;18.13;46.76
48862;BME280;34681;49.188;-0.374;2023-03-13T12:27:24;99491.75;;;18.18;46.95
48862;BME280;34681;49.188;-0.374;2023-03-13T12:33:18;99483.72;;;18.10;45.89
48862;BME280;34681;49.188;-0.374;2023-03-13T12:35:48;99486.34;;;18.05;46.48
48862;BME280;34681;49.188;-0.374;2023-03-13T12:38:25;99487.50;;;18.16;46.53
48862;BME280;34681;49.188;-0.374;2023-03-13T12:43:47;99474.28;;;18.18;46.73
48862;BME280;34681;49.188;-0.374;2023-03-13T12:46:32;99463.41;;;18.23;46.91
48862;BME280;34681;49.188;-0.374;2023-03-13T12:49:24;99449.88;;;18.33;46.80
48862;BME280;34681;49.188;-0.374;2023-03-13T12:59:57;99421.69;;;18.18;45.62
48862;BME280;34681;49.188;-0.374;2023-03-13T13:02:29;99411.66;;;18.23;45.79
48862;BME280;34681;49.188;-0.374;2023-03-13T13:04:57;99402.56;;;18.35;45.33
48862;BME280;34681;49.188;-0.374;2023-03-13T13:07:25;99401.28;;;18.37;45.44
48862;BME280;34681;49.188;-0.374;2023-03-13T13:12:39;99394.06;;;18.55;46.76
48862;BME280;34681;49.188;-0.374;2023-03-13T13:15:31;99389.72;;;18.59;46.28
48862;BME280;34681;49.188;-0.374;2023-03-13T13:18:09;99396.34;;;18.39;45.58
48862;BME280;34681;49.188;-0.374;2023-03-13T13:23:40;99385.13;;;18.34;46.01
48862;BME280;34681;49.188;-0.374;2023-03-13T13:28:54;99362.75;;;18.54;46.39
48862;BME280;34681;49.188;-0.374;2023-03-13T13:36:53;99339.81;;;18.65;45.80
48862;BME280;34681;49.188;-0.374;2023-03-13T13:41:52;99320.81;;;18.69;45.65
48862;BME280;34681;49.188;-0.374;2023-03-13T13:44:21;99328.97;;;18.64;44.90
48862;BME280;34681;49.188;-0.374;2023-03-13T13:46:47;99317.72;;;18.77;45.14
48862;BME280;34681;49.188;-0.374;2023-03-13T13:49:15;99310.22;;;18.66;44.89
48862;BME280;34681;49.188;-0.374;2023-03-13T13:52:16;99308.44;;;18.71;45.47
48862;BME280;34681;49.188;-0.374;2023-03-13T13:54:31;99312.56;;;18.80;45.23
48862;BME280;34681;49.188;-0.374;2023-03-13T13:57:03;99305.00;;;18.88;44.79